createdAt,value
2019-03-27T09:21:33.096Z,69.37
2019-03-27T09:22:33.083Z,67.43
2019-03-27T09:23:33.066Z,67.24
2019-03-27T09:24:33.055Z,64.62
2019-03-27T09:25:33.067Z,62.59
2019-03-27T09:26:33.034Z,62.13
2019-03-27T09:27:33.023Z,59.86
2019-03-27T09:28:33.011Z,59.86
2019-03-27T09:29:33.001Z,58.56
2019-03-27T09:30:33.012Z,58.97
2019-03-27T09:31:44.155Z,58.40
2019-03-27T09:32:33.971Z,58.15
2019-03-27T09:33:32.954Z,56.44
2019-03-27T09:34:32.944Z,55.50
2019-03-27T09:35:32.942Z,54.44
2019-03-27T09:36:32.923Z,53.19
2019-03-27T09:37:32.916Z,52.15
2019-03-27T09:38:32.898Z,51.65
2019-03-27T09:39:32.885Z,52.18
2019-03-27T09:40:32.881Z,51.35
2019-03-27T09:41:32.863Z,52.06
2019-03-27T09:42:32.852Z,51.12
2019-03-27T09:43:32.843Z,51.42
2019-03-27T09:44:32.835Z,51.20
2019-03-27T09:45:32.829Z,50.89
2019-03-27T09:46:32.809Z,51.28
2019-03-27T09:47:34.579Z,50.44
2019-03-27T09:48:32.783Z,49.01
2019-03-27T09:49:32.775Z,48.80
2019-03-27T09:50:32.761Z,47.16
2019-03-27T09:51:32.759Z,47.51
2019-03-27T09:52:32.737Z,47.63
2019-03-27T09:53:32.726Z,48.79
2019-03-27T09:54:32.715Z,48.43
2019-03-27T09:55:32.707Z,50.60
2019-03-27T09:56:32.702Z,50.73
2019-03-27T09:57:32.682Z,50.86
2019-03-27T09:58:32.671Z,52.69
2019-03-27T09:59:32.661Z,51.37
2019-03-27T10:00:32.647Z,51.09
2019-03-27T10:01:32.645Z,51.70
2019-03-27T10:02:32.630Z,50.65
2019-03-27T10:03:32.614Z,48.95
2019-03-27T10:04:32.601Z,49.89
2019-03-27T10:05:32.591Z,49.91
2019-03-27T10:06:32.588Z,50.75
2019-03-27T10:07:32.567Z,52.28
2019-03-27T10:08:32.558Z,52.37
2019-03-27T10:09:32.545Z,52.17
2019-03-27T10:10:32.534Z,52.58
2019-03-27T10:11:32.544Z,53.50
2019-03-27T10:12:32.510Z,53.78
2019-03-27T10:13:32.499Z,51.75
2019-03-27T10:14:32.489Z,50.93
2019-03-27T10:15:32.477Z,50.73
2019-03-27T10:16:32.479Z,50.75
2019-03-27T10:17:32.453Z,51.56
2019-03-27T10:18:32.442Z,51.06
2019-03-27T10:19:32.430Z,51.89
2019-03-27T10:20:32.419Z,51.79
2019-03-27T10:21:32.420Z,52.00
2019-03-27T10:22:32.398Z,51.97
2019-03-27T10:23:32.387Z,51.97
2019-03-27T10:24:32.374Z,52.15
2019-03-27T10:25:32.364Z,52.45
2019-03-27T10:26:32.362Z,50.70
2019-03-27T10:27:32.362Z,50.58
2019-03-27T10:28:32.331Z,49.16
2019-03-27T10:29:32.318Z,49.16
2019-03-27T10:30:32.309Z,49.03
2019-03-27T10:31:32.303Z,49.74
2019-03-27T10:32:32.284Z,47.28
2019-03-27T10:33:32.273Z,46.88
2019-03-27T10:34:32.261Z,47.36
2019-03-27T10:35:32.251Z,45.97
2019-03-27T10:36:32.245Z,46.86
2019-03-27T10:37:32.229Z,45.43
2019-03-27T10:38:32.223Z,44.85
2019-03-27T10:39:32.229Z,46.57
2019-03-27T10:40:32.202Z,46.09
2019-03-27T10:41:32.202Z,47.10
2019-03-27T10:42:32.170Z,46.70
2019-03-27T10:43:32.159Z,47.10
2019-03-27T10:44:32.147Z,46.92
2019-03-27T10:45:32.140Z,47.20
2019-03-27T10:46:32.134Z,48.52
2019-03-27T10:47:32.115Z,47.00
2019-03-27T10:48:32.102Z,47.22
2019-03-27T10:49:34.354Z,47.02
2019-03-27T10:50:32.085Z,47.43
2019-03-27T10:51:32.080Z,47.63
2019-03-27T10:52:32.056Z,47.45
2019-03-27T10:53:32.045Z,47.05
2019-03-27T10:54:32.034Z,47.05
2019-03-27T10:55:34.516Z,47.06
2019-03-27T10:56:32.026Z,48.80
2019-03-27T10:57:32.010Z,48.72
2019-03-27T10:58:31.990Z,49.12
2019-03-27T10:59:31.977Z,48.82
2019-03-27T11:00:31.969Z,49.25
2019-03-27T11:01:31.973Z,50.06
2019-03-27T11:02:31.943Z,50.59
2019-03-27T11:03:31.932Z,50.52
2019-03-27T11:04:31.920Z,50.90
2019-03-27T11:05:31.949Z,50.72
2019-03-27T11:06:31.911Z,51.46
2019-03-27T11:07:31.885Z,51.15
2019-03-27T11:08:31.877Z,52.27
2019-03-27T11:09:31.865Z,52.07
2019-03-27T11:10:31.854Z,52.17
2019-03-27T11:11:31.842Z,52.48
2019-03-27T11:12:31.838Z,52.78
2019-03-27T11:13:34.371Z,52.68
2019-03-27T11:14:37.649Z,52.58
2019-03-27T11:15:32.795Z,52.20
2019-03-27T11:16:31.785Z,52.88
2019-03-27T11:17:31.783Z,53.09
2019-03-27T11:18:31.764Z,52.70
2019-03-27T11:19:33.539Z,53.52
2019-03-27T11:20:31.852Z,53.85
2019-03-27T11:21:31.727Z,54.36
2019-03-27T11:22:31.733Z,54.16
2019-03-27T11:23:31.708Z,53.85
2019-03-27T11:24:31.696Z,53.75
2019-03-27T11:25:33.303Z,53.77
2019-03-27T11:26:31.671Z,53.64
2019-03-27T11:27:31.673Z,53.34
2019-03-27T11:28:31.686Z,52.73
2019-03-27T11:29:31.640Z,53.55
2019-03-27T11:30:31.629Z,52.62
2019-03-27T11:31:31.624Z,53.01
2019-03-27T11:32:31.622Z,52.93
2019-03-27T11:33:31.592Z,51.68
2019-03-27T11:34:31.581Z,51.79
2019-03-27T11:35:31.569Z,51.48
2019-03-27T11:36:31.558Z,51.28
2019-03-27T11:37:31.557Z,51.17
2019-03-27T11:38:31.535Z,51.05
2019-03-27T11:39:31.526Z,50.77
2019-03-27T11:40:31.517Z,49.83
2019-03-27T11:41:31.502Z,49.34
2019-03-27T11:42:31.499Z,49.95
2019-03-27T11:43:31.480Z,49.34
2019-03-27T11:44:31.469Z,49.26
2019-03-27T11:45:31.468Z,48.96
2019-03-27T11:46:32.350Z,49.46
2019-03-27T11:47:31.442Z,49.57
2019-03-27T11:48:31.424Z,50.08
2019-03-27T11:49:31.413Z,50.56
2019-03-27T11:50:44.138Z,49.65
2019-03-27T11:51:32.388Z,50.05
2019-03-27T11:52:31.389Z,49.62
2019-03-27T11:53:31.367Z,49.93
2019-03-27T11:54:31.356Z,48.60
2019-03-27T11:55:31.343Z,48.18
2019-03-27T11:56:31.334Z,47.46
2019-03-27T11:57:31.335Z,47.46
2019-03-27T11:58:31.313Z,47.26
2019-03-27T11:59:31.298Z,47.26
2019-03-27T12:00:31.286Z,48.56
2019-03-27T12:01:40.516Z,48.99
2019-03-27T12:02:32.274Z,48.68
2019-03-27T12:03:31.253Z,47.16
2019-03-27T12:04:31.242Z,47.64
2019-03-27T12:05:31.230Z,49.19
2019-03-27T12:06:31.221Z,49.50
2019-03-27T12:07:31.244Z,47.16
2019-03-27T12:08:31.199Z,47.87
2019-03-27T12:09:31.190Z,47.36
2019-03-27T12:10:31.177Z,47.36
2019-03-27T12:11:31.165Z,47.46
2019-03-27T12:12:31.151Z,46.85
2019-03-27T12:13:31.166Z,47.28
2019-03-27T12:14:31.135Z,47.05
2019-03-27T12:15:31.118Z,47.38
2019-03-27T12:16:31.107Z,47.69
2019-03-27T12:17:31.102Z,47.79
2019-03-27T12:18:32.223Z,48.89
2019-03-27T12:19:31.075Z,47.49
2019-03-27T12:20:31.063Z,48.10
2019-03-27T12:21:31.050Z,48.19
2019-03-27T12:22:31.041Z,48.60
2019-03-27T12:23:31.036Z,48.50
2019-03-27T12:24:31.019Z,47.58
2019-03-27T12:25:31.012Z,47.71
2019-03-27T12:26:30.993Z,47.40
2019-03-27T12:27:30.984Z,47.50
2019-03-27T12:28:30.996Z,49.04
2019-03-27T12:29:30.974Z,49.16
2019-03-27T12:30:30.948Z,49.54
2019-03-27T12:31:30.943Z,50.79
2019-03-27T12:32:30.927Z,50.67
2019-03-27T12:33:30.924Z,50.87
2019-03-27T12:34:30.906Z,50.26
2019-03-27T12:35:30.893Z,49.67
2019-03-27T12:36:30.880Z,50.18
2019-03-27T12:37:30.869Z,50.08
2019-03-27T12:38:30.865Z,50.59
2019-03-27T12:39:30.847Z,50.38
2019-03-27T12:40:30.836Z,51.10
2019-03-27T12:41:33.086Z,50.71
2019-03-27T12:42:30.816Z,51.61
2019-03-27T12:43:30.813Z,52.96
2019-03-27T12:44:30.789Z,52.96
2019-03-27T12:45:30.778Z,53.47
2019-03-27T12:46:30.781Z,52.86
2019-03-27T12:47:30.758Z,52.55
2019-03-27T12:48:30.751Z,52.86
2019-03-27T12:49:30.766Z,52.75
2019-03-27T12:50:30.721Z,52.65
2019-03-27T12:51:30.711Z,52.32
2019-03-27T12:52:30.713Z,52.62
2019-03-27T12:53:30.700Z,52.42
2019-03-27T12:54:30.677Z,52.96
2019-03-27T12:55:30.664Z,52.53
2019-03-27T12:56:30.655Z,52.53
2019-03-27T12:57:30.644Z,52.96
2019-03-27T12:58:30.646Z,52.01
2019-03-27T12:59:30.618Z,51.81
2019-03-27T13:00:30.609Z,51.61
2019-03-27T13:01:30.596Z,51.61
2019-03-27T13:02:30.586Z,51.51
2019-03-27T13:03:30.609Z,50.79
2019-03-27T13:04:30.573Z,50.89
2019-03-27T13:05:30.554Z,51.22
2019-03-27T13:06:30.540Z,50.79
2019-03-27T13:07:30.531Z,50.89
2019-03-27T13:08:30.518Z,50.89
2019-03-27T13:09:30.515Z,51.10
2019-03-27T13:10:30.517Z,50.08
2019-03-27T13:11:30.482Z,50.89
2019-03-27T13:12:30.476Z,49.87
2019-03-27T13:13:30.461Z,50.69
2019-03-27T13:14:30.462Z,50.18
2019-03-27T13:15:30.437Z,49.16
2019-03-27T13:16:30.425Z,48.96
2019-03-27T13:17:30.421Z,49.26
2019-03-27T13:18:30.404Z,49.46
2019-03-27T13:19:30.401Z,48.75
2019-03-27T13:20:30.384Z,49.26
2019-03-27T13:21:30.372Z,49.13
2019-03-27T13:22:30.363Z,49.13
2019-03-27T13:23:30.348Z,49.05
2019-03-27T13:24:30.345Z,48.83
2019-03-27T13:25:30.326Z,48.85
2019-03-27T13:26:30.315Z,48.73
2019-03-27T13:27:30.310Z,49.34
2019-03-27T13:28:30.294Z,47.79
2019-03-27T13:29:30.286Z,49.21
2019-03-27T13:30:30.270Z,49.52
2019-03-27T13:31:30.256Z,48.27
2019-03-27T13:32:30.245Z,47.58
2019-03-27T13:33:30.237Z,47.28
2019-03-27T13:34:30.230Z,47.17
2019-03-27T13:35:30.216Z,47.77
2019-03-27T13:36:30.206Z,47.17
2019-03-27T13:37:30.189Z,47.17
2019-03-27T13:38:30.177Z,47.49
2019-03-27T13:39:30.177Z,47.38
2019-03-27T13:40:30.154Z,47.17
2019-03-27T13:41:30.141Z,47.69
2019-03-27T13:42:30.131Z,48.10
2019-03-27T13:43:30.135Z,47.28
2019-03-27T13:44:36.921Z,47.99
2019-03-27T13:45:31.097Z,49.54
2019-03-27T13:46:30.087Z,48.93
2019-03-27T13:47:30.078Z,49.11
2019-03-27T13:48:30.063Z,48.50
2019-03-27T13:49:30.069Z,48.52
2019-03-27T13:50:30.040Z,48.91
2019-03-27T13:51:40.324Z,48.73
2019-03-27T13:52:31.017Z,48.42
2019-03-27T13:53:30.007Z,48.93
2019-03-27T13:54:30.007Z,49.01
2019-03-27T13:55:29.991Z,48.30
2019-03-27T13:56:29.975Z,48.19
2019-03-27T13:57:29.962Z,48.91
2019-03-27T13:58:29.950Z,48.19
2019-03-27T13:59:29.952Z,47.66
2019-03-27T14:00:29.927Z,48.58
2019-03-27T14:01:29.918Z,47.97
2019-03-27T14:02:29.905Z,47.36
2019-03-27T14:03:29.893Z,46.83
2019-03-27T14:04:29.883Z,47.44
2019-03-27T14:05:29.883Z,47.24
2019-03-27T14:06:29.859Z,47.13
2019-03-27T14:07:29.852Z,47.42
2019-03-27T14:08:29.837Z,48.66
2019-03-27T14:09:29.827Z,49.45
2019-03-27T14:10:29.832Z,49.25
2019-03-27T14:11:29.802Z,49.04
2019-03-27T14:12:29.794Z,49.68
2019-03-27T14:13:29.784Z,49.98
2019-03-27T14:14:29.769Z,50.80
2019-03-27T14:15:29.790Z,50.29
2019-03-27T14:16:29.746Z,50.80
2019-03-27T14:17:29.735Z,50.49
2019-03-27T14:18:29.774Z,50.59
2019-03-27T14:19:29.743Z,50.59
2019-03-27T14:20:29.711Z,50.49
2019-03-27T14:21:29.703Z,50.39
2019-03-27T14:22:29.678Z,50.80
2019-03-27T14:23:29.670Z,51.13
2019-03-27T14:24:29.655Z,51.13
2019-03-27T14:25:29.652Z,51.23
2019-03-27T14:26:29.634Z,50.92
2019-03-27T14:27:29.624Z,50.92
2019-03-27T14:28:29.611Z,51.13
2019-03-27T14:29:29.600Z,51.23
2019-03-27T14:30:29.602Z,51.84
2019-03-27T14:31:29.576Z,51.74
2019-03-27T14:32:29.565Z,51.23
2019-03-27T14:33:29.554Z,50.82
2019-03-27T14:34:29.547Z,51.03
2019-03-27T14:35:29.539Z,50.62
2019-03-27T14:36:29.521Z,51.25
2019-03-27T14:37:29.525Z,51.43
2019-03-27T14:38:29.499Z,51.64
2019-03-27T14:39:29.487Z,51.86
2019-03-27T14:40:29.487Z,51.33
2019-03-27T14:41:29.463Z,51.97
2019-03-27T14:42:29.453Z,52.04
2019-03-27T14:43:29.442Z,50.92
2019-03-27T14:44:29.438Z,50.23
2019-03-27T14:45:29.432Z,50.34
2019-03-27T14:46:29.406Z,51.15
2019-03-27T14:47:29.495Z,50.95
2019-03-27T14:48:29.385Z,51.05
2019-03-27T14:49:29.379Z,51.66
2019-03-27T14:50:29.373Z,51.56
2019-03-27T14:51:29.353Z,50.74
2019-03-27T14:52:29.343Z,50.44
2019-03-27T14:53:29.328Z,50.64
2019-03-27T14:54:29.321Z,50.74
2019-03-27T14:55:29.315Z,51.15
2019-03-27T14:56:29.296Z,51.03
2019-03-27T14:57:29.284Z,50.44
2019-03-27T14:58:29.270Z,50.44
2019-03-27T14:59:29.266Z,50.64
2019-03-27T15:00:29.260Z,49.32
2019-03-27T15:01:29.236Z,49.73
2019-03-27T15:02:29.281Z,49.11
2019-03-27T15:03:29.215Z,49.83
2019-03-27T15:04:29.204Z,49.42
2019-03-27T15:05:29.205Z,50.23
2019-03-27T15:06:29.182Z,50.72
2019-03-27T15:07:29.167Z,50.54
2019-03-27T15:08:29.166Z,50.95
2019-03-27T15:09:29.148Z,49.09
2019-03-27T15:10:29.144Z,49.09
2019-03-27T15:11:29.127Z,49.29
2019-03-27T15:12:29.111Z,50.31
2019-03-27T15:13:29.099Z,50.92
2019-03-27T15:14:29.089Z,49.60
2019-03-27T15:15:29.086Z,48.96
2019-03-27T15:16:29.072Z,48.89
2019-03-27T15:17:29.053Z,49.40
2019-03-27T15:18:29.043Z,48.86
2019-03-27T15:19:29.032Z,49.27
2019-03-27T15:20:29.032Z,49.27
2019-03-27T15:21:29.009Z,49.68
2019-03-27T15:22:29.104Z,48.86
2019-03-27T15:23:28.985Z,49.78
2019-03-27T15:24:28.975Z,49.48
2019-03-27T15:25:28.985Z,49.17
2019-03-27T15:26:28.953Z,49.07
2019-03-27T15:27:28.945Z,49.58
2019-03-27T15:28:28.931Z,49.27
2019-03-27T15:29:28.918Z,49.78
2019-03-27T15:30:28.906Z,49.58
2019-03-27T15:31:28.904Z,49.68
2019-03-27T15:32:28.888Z,48.89
2019-03-27T15:33:28.882Z,48.76
2019-03-27T15:34:28.870Z,48.96
2019-03-27T15:35:28.850Z,49.68
2019-03-27T15:36:28.848Z,48.99
2019-03-27T15:37:28.838Z,48.07
2019-03-27T15:38:28.819Z,48.68
2019-03-27T15:39:28.805Z,49.09
2019-03-27T15:40:28.854Z,48.99
2019-03-27T15:41:28.791Z,48.99
2019-03-27T15:42:28.770Z,48.99
2019-03-27T15:43:28.759Z,49.09
2019-03-27T15:44:28.749Z,49.70
2019-03-27T15:45:28.736Z,49.19
2019-03-27T15:46:28.735Z,49.19
2019-03-27T15:47:28.713Z,49.70
2019-03-27T15:48:28.704Z,49.80
2019-03-27T15:49:28.691Z,50.31
2019-03-27T15:50:28.687Z,49.29
2019-03-27T15:51:28.678Z,49.11
2019-03-27T15:52:36.332Z,50.01
2019-03-27T15:53:29.653Z,50.72
2019-03-27T15:54:28.634Z,50.31
2019-03-27T15:55:28.626Z,50.52
2019-03-27T15:56:28.623Z,50.92
2019-03-27T15:57:28.603Z,49.50
2019-03-27T15:58:28.591Z,50.42
2019-03-27T15:59:28.579Z,49.50
2019-03-27T16:00:28.568Z,50.84
2019-03-27T16:01:28.568Z,51.03
2019-03-27T16:02:28.551Z,50.03
2019-03-27T16:03:28.532Z,49.83
2019-03-27T16:04:28.524Z,49.52
2019-03-27T16:05:28.509Z,50.21
2019-03-27T16:06:28.531Z,51.13
2019-03-27T16:07:31.097Z,50.23
2019-03-27T16:08:28.479Z,50.95
2019-03-27T16:09:28.471Z,50.64
2019-03-27T16:10:28.461Z,50.44
2019-03-27T16:11:28.452Z,50.95
2019-03-27T16:12:28.432Z,50.31
2019-03-27T16:13:28.425Z,50.13
2019-03-27T16:14:28.410Z,50.23
2019-03-27T16:15:28.398Z,49.93
2019-03-27T16:16:28.396Z,49.42
2019-03-27T16:17:28.374Z,50.72
2019-03-27T16:18:28.364Z,50.54
2019-03-27T16:19:28.351Z,50.44
2019-03-27T16:20:28.345Z,50.44
2019-03-27T16:21:28.338Z,50.34
2019-03-27T16:22:28.320Z,50.84
2019-03-27T16:23:28.305Z,50.95
2019-03-27T16:24:28.295Z,50.74
2019-03-27T16:25:28.283Z,50.05
2019-03-27T16:26:28.281Z,49.42
2019-03-27T16:27:28.262Z,50.54
2019-03-27T16:28:28.261Z,51.05
2019-03-27T16:29:28.237Z,50.84
2019-03-27T16:30:28.292Z,51.05
2019-03-27T16:31:28.231Z,51.05
2019-03-27T16:32:28.204Z,51.35
2019-03-27T16:33:28.228Z,51.25
2019-03-27T16:34:28.180Z,50.64
2019-03-27T16:35:28.176Z,51.05
2019-03-27T16:36:28.220Z,51.56
2019-03-27T16:37:28.199Z,50.54
2019-03-27T16:38:28.156Z,50.77
2019-03-27T16:39:28.124Z,50.74
2019-03-27T16:40:28.124Z,50.95
2019-03-27T16:41:28.132Z,50.97
2019-03-27T16:42:28.208Z,50.67
2019-03-27T16:43:28.078Z,51.28
2019-03-27T16:44:28.068Z,50.84
2019-03-27T16:45:28.056Z,51.07
2019-03-27T16:46:28.062Z,51.28
2019-03-27T16:47:28.034Z,50.67
2019-03-27T16:48:28.023Z,50.87
2019-03-27T16:49:28.010Z,50.77
2019-03-27T16:50:27.999Z,50.97
2019-03-27T16:51:27.989Z,51.48
2019-03-27T16:52:27.992Z,51.17
2019-03-27T16:53:27.967Z,51.38
2019-03-27T16:54:27.952Z,51.07
2019-03-27T16:55:27.943Z,51.38
2019-03-27T16:56:27.931Z,51.20
2019-03-27T16:57:27.929Z,51.71
2019-03-27T16:58:27.907Z,51.71
2019-03-27T16:59:27.897Z,51.91
2019-03-27T17:00:27.887Z,52.32
2019-03-27T17:01:27.875Z,52.83
2019-03-27T17:02:27.896Z,52.62
2019-03-27T17:03:27.850Z,52.93
2019-03-27T17:04:27.840Z,52.73
2019-03-27T17:05:27.829Z,53.03
2019-03-27T17:06:27.817Z,52.53
2019-03-27T17:07:27.813Z,52.73
2019-03-27T17:08:27.795Z,52.83
2019-03-27T17:09:27.782Z,52.73
2019-03-27T17:10:27.773Z,52.22
2019-03-27T17:11:27.760Z,52.83
2019-03-27T17:12:27.757Z,52.42
2019-03-27T17:13:27.739Z,53.03
2019-03-27T17:14:27.729Z,52.42
2019-03-27T17:15:27.717Z,52.73
2019-03-27T17:16:27.703Z,52.53
2019-03-27T17:17:27.699Z,53.06
2019-03-27T17:18:28.238Z,52.65
2019-03-27T17:19:27.688Z,52.75
2019-03-27T17:20:27.657Z,52.93
2019-03-27T17:21:27.678Z,52.45
2019-03-27T17:22:27.667Z,52.65
2019-03-27T17:23:27.622Z,52.96
2019-03-27T17:24:27.616Z,52.96
2019-03-27T17:25:27.703Z,52.75
2019-03-27T17:26:27.589Z,53.80
2019-03-27T17:27:27.606Z,53.98
2019-03-27T17:28:27.593Z,54.00
2019-03-27T17:29:27.557Z,54.31
2019-03-27T17:30:27.551Z,54.41
2019-03-27T17:31:27.582Z,54.41
2019-03-27T17:32:27.552Z,54.72
2019-03-27T17:33:27.511Z,54.72
2019-03-27T17:34:27.509Z,54.51
2019-03-27T17:35:27.508Z,54.92
2019-03-27T17:36:27.477Z,55.23
2019-03-27T17:37:27.497Z,55.15
2019-03-27T17:38:27.454Z,55.46
2019-03-27T17:39:27.504Z,55.87
2019-03-27T17:40:27.441Z,55.76
2019-03-27T17:41:28.405Z,55.76
2019-03-27T17:42:27.424Z,55.97
2019-03-27T17:43:27.402Z,55.97
2019-03-27T17:44:27.394Z,55.66
2019-03-27T17:45:27.376Z,56.27
2019-03-27T17:46:27.364Z,55.87
2019-03-27T17:47:27.397Z,55.97
2019-03-27T17:48:27.341Z,56.58
2019-03-27T17:49:27.327Z,56.48
2019-03-27T17:50:27.316Z,56.51
2019-03-27T17:51:27.311Z,56.61
2019-03-27T17:52:27.294Z,56.40
2019-03-27T17:53:31.928Z,56.71
2019-03-27T17:54:27.272Z,56.58
2019-03-27T17:55:27.262Z,56.92
2019-03-27T17:56:27.248Z,56.92
2019-03-27T17:57:27.238Z,56.81
2019-03-27T17:58:27.234Z,57.04
2019-03-27T17:59:27.241Z,56.71
2019-03-27T18:00:27.203Z,56.63
2019-03-27T18:01:27.190Z,56.92
2019-03-27T18:02:27.179Z,56.84
2019-03-27T18:03:27.179Z,56.84
2019-03-27T18:04:27.159Z,57.25
2019-03-27T18:05:27.151Z,56.84
2019-03-27T18:06:27.133Z,56.84
2019-03-27T18:07:27.124Z,56.63
2019-03-27T18:08:27.121Z,56.76
2019-03-27T18:09:27.099Z,57.68
2019-03-27T18:10:27.091Z,57.79
2019-03-27T18:11:27.078Z,57.99
2019-03-27T18:12:27.065Z,58.20
2019-03-27T18:13:27.063Z,57.99
2019-03-27T18:14:27.042Z,58.40
2019-03-27T18:15:27.058Z,58.20
2019-03-27T18:16:27.020Z,58.50
2019-03-27T18:17:27.009Z,58.40
2019-03-27T18:18:27.008Z,58.12
2019-03-27T18:19:26.984Z,58.33
2019-03-27T18:20:26.979Z,58.81
2019-03-27T18:21:26.970Z,58.73
2019-03-27T18:22:26.953Z,58.33
2019-03-27T18:23:27.035Z,58.20
2019-03-27T18:24:26.933Z,58.33
2019-03-27T18:25:26.917Z,58.43
2019-03-27T18:26:26.912Z,58.33
2019-03-27T18:27:26.894Z,58.43
2019-03-27T18:28:26.883Z,59.14
2019-03-27T18:29:26.886Z,58.22
2019-03-27T18:30:26.860Z,58.94
2019-03-27T18:31:26.848Z,58.94
2019-03-27T18:32:26.841Z,58.63
2019-03-27T18:33:26.828Z,58.76
2019-03-27T18:34:26.824Z,58.56
2019-03-27T18:35:26.803Z,59.17
2019-03-27T18:36:26.791Z,59.17
2019-03-27T18:37:26.796Z,59.58
2019-03-27T18:38:26.777Z,60.10
2019-03-27T18:39:26.770Z,60.40
2019-03-27T18:40:26.746Z,59.89
2019-03-27T18:41:26.737Z,60.91
2019-03-27T18:42:26.726Z,60.60
2019-03-27T18:43:26.713Z,59.89
2019-03-27T18:44:26.718Z,59.78
2019-03-27T18:45:26.689Z,59.48
2019-03-27T18:46:26.678Z,59.99
2019-03-27T18:47:26.669Z,60.30
2019-03-27T18:48:26.655Z,59.78
2019-03-27T18:49:26.693Z,60.40
2019-03-27T18:50:26.634Z,60.33
2019-03-27T18:51:26.620Z,60.63
2019-03-27T18:52:26.611Z,59.92
2019-03-27T18:53:26.601Z,60.12
2019-03-27T18:54:26.596Z,60.22
2019-03-27T18:55:27.229Z,60.42
2019-03-27T18:56:26.566Z,60.63
2019-03-27T18:57:26.554Z,59.92
2019-03-27T18:58:26.547Z,61.04
2019-03-27T18:59:26.538Z,60.84
2019-03-27T19:00:26.604Z,60.22
2019-03-27T19:01:26.510Z,60.63
2019-03-27T19:02:26.498Z,60.63
2019-03-27T19:03:26.485Z,60.74
2019-03-27T19:04:26.482Z,60.53
2019-03-27T19:05:26.465Z,60.53
2019-03-27T19:06:26.453Z,60.22
2019-03-27T19:07:26.441Z,60.97
2019-03-27T19:08:26.438Z,60.63
2019-03-27T19:09:26.429Z,60.53
2019-03-27T19:10:26.406Z,60.84
2019-03-27T19:11:26.395Z,60.74
2019-03-27T19:12:27.195Z,60.22
2019-03-27T19:13:26.373Z,61.18
2019-03-27T19:14:26.372Z,60.63
2019-03-27T19:15:26.349Z,60.46
2019-03-27T19:16:26.338Z,60.66
2019-03-27T19:17:26.328Z,61.07
2019-03-27T19:18:26.315Z,60.97
2019-03-27T19:19:26.313Z,61.38
2019-03-27T19:20:26.292Z,61.69
2019-03-27T19:21:26.281Z,61.69
2019-03-27T19:22:26.275Z,62.10
2019-03-27T19:23:26.263Z,61.48
2019-03-27T19:24:26.263Z,61.89
2019-03-27T19:25:26.240Z,61.99
2019-03-27T19:26:26.226Z,61.99
2019-03-27T19:27:26.214Z,62.12
2019-03-27T19:28:26.205Z,61.79
2019-03-27T19:29:26.255Z,61.58
2019-03-27T19:30:26.180Z,62.19
2019-03-27T19:31:26.176Z,61.82
2019-03-27T19:32:26.159Z,62.02
2019-03-27T19:33:26.148Z,61.79
2019-03-27T19:34:26.137Z,61.82
2019-03-27T19:35:26.132Z,61.38
2019-03-27T19:36:26.111Z,61.92
2019-03-27T19:37:26.102Z,62.23
2019-03-27T19:38:26.089Z,62.84
2019-03-27T19:39:26.081Z,62.84
2019-03-27T19:40:26.076Z,62.54
2019-03-27T19:41:26.056Z,62.33
2019-03-27T19:42:26.044Z,62.46
2019-03-27T19:43:26.037Z,62.33
2019-03-27T19:44:26.022Z,62.77
2019-03-27T19:45:26.021Z,62.84
2019-03-27T19:46:26.037Z,62.77
2019-03-27T19:47:25.990Z,63.05
2019-03-27T19:48:25.977Z,63.07
2019-03-27T19:49:25.970Z,63.05
2019-03-27T19:50:25.967Z,63.46
2019-03-27T19:51:25.942Z,63.59
2019-03-27T19:52:25.937Z,63.59
2019-03-27T19:53:25.919Z,63.59
2019-03-27T19:54:27.322Z,63.28
2019-03-27T19:55:25.908Z,63.28
2019-03-27T19:56:25.886Z,63.59
2019-03-27T19:57:25.874Z,63.69
2019-03-27T19:58:25.864Z,63.59
2019-03-27T19:59:25.851Z,63.69
2019-03-27T20:00:25.849Z,63.90
2019-03-27T20:01:25.833Z,63.79
2019-03-27T20:02:25.819Z,63.79
2019-03-27T20:03:25.807Z,63.79
2019-03-27T20:04:25.794Z,63.49
2019-03-27T20:05:25.796Z,63.49
2019-03-27T20:06:25.777Z,63.79
2019-03-27T20:07:35.309Z,64.13
2019-03-27T20:08:26.748Z,64.10
2019-03-27T20:09:25.739Z,64.31
2019-03-27T20:10:25.728Z,65.23
2019-03-27T20:11:25.747Z,64.51
2019-03-27T20:12:25.706Z,64.20
2019-03-27T20:13:25.692Z,64.23
2019-03-27T20:14:25.769Z,64.34
2019-03-27T20:15:25.672Z,64.10
2019-03-27T20:16:25.668Z,64.34
2019-03-27T20:17:25.647Z,64.51
2019-03-27T20:18:25.642Z,64.54
2019-03-27T20:19:25.641Z,64.03
2019-03-27T20:20:25.614Z,64.13
2019-03-27T20:21:25.611Z,64.34
2019-03-27T20:22:25.593Z,64.54
2019-03-27T20:23:25.583Z,64.44
2019-03-27T20:24:25.570Z,64.54
2019-03-27T20:25:25.569Z,64.54
2019-03-27T20:26:25.573Z,64.54
2019-03-27T20:27:25.535Z,64.13
2019-03-27T20:28:25.567Z,64.03
2019-03-27T20:29:25.522Z,64.54
2019-03-27T20:30:26.986Z,64.51
2019-03-27T20:31:25.503Z,64.44
2019-03-27T20:32:25.492Z,65.47
2019-03-27T20:33:25.477Z,65.26
2019-03-27T20:34:25.468Z,65.16
2019-03-27T20:35:25.447Z,65.67
2019-03-27T20:36:25.571Z,65.26
2019-03-27T20:37:25.428Z,65.16
2019-03-27T20:38:25.431Z,65.16
2019-03-27T20:39:25.435Z,65.60
2019-03-27T20:40:27.710Z,65.16
2019-03-27T20:41:25.396Z,65.26
2019-03-27T20:42:25.365Z,65.26
2019-03-27T20:43:25.366Z,64.78
2019-03-27T20:44:25.352Z,65.19
2019-03-27T20:45:25.353Z,65.26
2019-03-27T20:46:29.176Z,64.85
2019-03-27T20:47:25.345Z,64.85
2019-03-27T20:48:25.304Z,65.29
2019-03-27T20:49:25.295Z,65.16
2019-03-27T20:50:27.003Z,65.91
2019-03-27T20:51:25.275Z,64.98
2019-03-27T20:52:25.250Z,65.09
2019-03-27T20:53:25.273Z,65.09
2019-03-27T20:54:25.254Z,65.09
2019-03-27T20:55:30.454Z,65.29
2019-03-27T20:56:26.220Z,65.70
2019-03-27T20:57:25.195Z,66.01
2019-03-27T20:58:25.183Z,65.67
2019-03-27T20:59:25.178Z,66.01
2019-03-27T21:00:25.161Z,66.01
2019-03-27T21:01:25.151Z,67.03
2019-03-27T21:02:25.150Z,67.03
2019-03-27T21:03:25.132Z,66.31
2019-03-27T21:04:25.119Z,66.93
2019-03-27T21:05:25.105Z,66.11
2019-03-27T21:06:25.092Z,66.35
2019-03-27T21:07:25.091Z,66.35
2019-03-27T21:08:25.073Z,66.35
2019-03-27T21:09:25.059Z,66.96
2019-03-27T21:10:25.049Z,66.86
2019-03-27T21:11:25.038Z,66.96
2019-03-27T21:12:25.042Z,67.07
2019-03-27T21:13:25.013Z,67.38
2019-03-27T21:14:25.005Z,67.17
2019-03-27T21:15:25.082Z,67.17
2019-03-27T21:16:24.979Z,67.61
2019-03-27T21:17:25.009Z,67.30
2019-03-27T21:18:24.959Z,67.51
2019-03-27T21:19:24.948Z,67.58
2019-03-27T21:20:24.941Z,66.28
2019-03-27T21:21:24.926Z,67.41
2019-03-27T21:22:24.927Z,67.82
2019-03-27T21:23:24.907Z,67.92
2019-03-27T21:24:24.893Z,68.02
2019-03-27T21:25:25.020Z,68.23
2019-03-27T21:26:24.867Z,68.05
2019-03-27T21:27:24.869Z,67.10
2019-03-27T21:28:24.845Z,68.16
2019-03-27T21:29:24.841Z,67.92
2019-03-27T21:30:24.822Z,67.65
2019-03-27T21:31:24.823Z,67.75
2019-03-27T21:32:24.815Z,67.61
2019-03-27T21:33:24.788Z,68.57
2019-03-27T21:34:24.780Z,68.67
2019-03-27T21:35:24.764Z,69.18
2019-03-27T21:36:24.754Z,68.77
2019-03-27T21:37:24.758Z,69.60
2019-03-27T21:38:24.735Z,68.57
2019-03-27T21:39:25.966Z,68.67
2019-03-27T21:40:24.713Z,68.33
2019-03-27T21:41:24.696Z,68.16
2019-03-27T21:42:24.686Z,68.37
2019-03-27T21:43:24.689Z,68.57
2019-03-27T21:44:24.666Z,68.16
2019-03-27T21:45:24.654Z,68.57
2019-03-27T21:46:24.641Z,69.39
2019-03-27T21:47:24.629Z,69.49
2019-03-27T21:48:24.632Z,69.18
2019-03-27T21:49:24.615Z,69.39
2019-03-27T21:50:24.597Z,69.49
2019-03-27T21:51:24.585Z,69.29
2019-03-27T21:52:24.573Z,69.29
2019-03-27T21:53:24.578Z,69.39
2019-03-27T21:54:24.553Z,70.01
2019-03-27T21:55:24.549Z,70.11
2019-03-27T21:56:24.527Z,70.21
2019-03-27T21:57:24.518Z,69.90
2019-03-27T21:58:24.524Z,69.60
2019-03-27T21:59:24.494Z,70.21
2019-03-27T22:00:24.493Z,70.62
2019-03-27T22:01:24.472Z,70.73
2019-03-27T22:02:24.463Z,70.52
2019-03-27T22:03:24.457Z,70.32
2019-03-27T22:04:24.443Z,70.73
2019-03-27T22:05:24.427Z,70.35
2019-03-27T22:06:24.416Z,70.83
2019-03-27T22:07:24.404Z,71.07
2019-03-27T22:08:24.405Z,70.04
2019-03-27T22:09:24.381Z,70.32
2019-03-27T22:10:24.379Z,69.94
2019-03-27T22:11:24.359Z,70.14
2019-03-27T22:12:24.349Z,70.73
2019-03-27T22:13:24.347Z,71.07